createdAt,value
2023-05-07T00:01:45.463Z,5.00
2023-05-07T00:04:08.613Z,5.30
2023-05-07T00:06:30.086Z,5.53
2023-05-07T00:08:51.400Z,5.57
2023-05-07T00:11:12.815Z,6.00
2023-05-07T00:13:36.555Z,7.63
2023-05-07T00:15:57.810Z,5.63
2023-05-07T00:18:22.073Z,5.07
2023-05-07T00:20:44.883Z,5.53
2023-05-07T00:23:06.307Z,8.97
2023-05-07T00:25:27.883Z,5.73
2023-05-07T00:27:48.977Z,5.80
2023-05-07T00:30:10.944Z,6.23
2023-05-07T00:32:32.546Z,10.03
2023-05-07T00:34:53.779Z,7.63
2023-05-07T00:37:16.567Z,5.80
2023-05-07T00:39:37.785Z,5.47
2023-05-07T00:41:59.104Z,5.20
2023-05-07T00:44:20.527Z,5.53
2023-05-07T00:46:41.652Z,4.73
2023-05-07T00:49:03.799Z,4.90
2023-05-07T00:51:25.959Z,5.20
2023-05-07T00:53:48.762Z,5.00
2023-05-07T00:56:10.176Z,4.63
2023-05-07T00:58:32.077Z,5.57
2023-05-07T01:00:53.401Z,5.40
2023-05-07T01:03:14.828Z,5.33
2023-05-07T01:05:36.487Z,4.70
2023-05-07T01:07:59.001Z,4.40
2023-05-07T01:10:22.015Z,5.20
2023-05-07T01:12:44.040Z,5.30
2023-05-07T01:15:05.685Z,4.80
2023-05-07T01:17:26.997Z,5.33
2023-05-07T01:19:48.969Z,5.27
2023-05-07T01:22:11.568Z,5.27
2023-05-07T01:24:35.132Z,5.43
2023-05-07T01:26:56.469Z,4.90
2023-05-07T01:29:17.957Z,5.10
2023-05-07T01:31:39.576Z,7.33
2023-05-07T01:34:01.822Z,4.70
2023-05-07T01:36:24.938Z,4.97
2023-05-07T01:38:47.049Z,4.90
2023-05-07T01:41:09.953Z,4.73
2023-05-07T01:43:31.621Z,4.77
2023-05-07T01:45:53.726Z,4.77
2023-05-07T01:48:16.302Z,4.80
2023-05-07T01:50:38.673Z,5.33
2023-05-07T01:53:00.370Z,5.00
2023-05-07T01:55:21.919Z,5.00
2023-05-07T01:57:45.010Z,4.57
2023-05-07T02:00:07.187Z,4.60
2023-05-07T02:02:28.351Z,5.00
2023-05-07T02:04:49.373Z,5.67
2023-05-07T02:07:11.145Z,4.80
2023-05-07T02:09:32.266Z,5.00
2023-05-07T02:11:53.612Z,5.40
2023-05-07T02:14:16.490Z,5.13
2023-05-07T02:17:06.035Z,5.37
2023-05-07T02:19:27.427Z,5.03
2023-05-07T02:21:48.675Z,5.03
2023-05-07T02:24:10.138Z,5.13
2023-05-07T02:26:31.994Z,5.13
2023-05-07T02:28:53.144Z,5.33
2023-05-07T02:31:16.006Z,5.63
2023-05-07T02:33:37.541Z,6.17
2023-05-07T02:35:58.717Z,5.10
2023-05-07T02:38:20.054Z,5.13
2023-05-07T02:40:41.381Z,5.30
2023-05-07T02:43:02.591Z,5.00
2023-05-07T02:45:24.187Z,4.80
2023-05-07T02:47:47.488Z,5.20
2023-05-07T02:50:09.378Z,5.37
2023-05-07T02:52:30.826Z,5.13
2023-05-07T02:54:52.120Z,4.30
2023-05-07T02:57:13.536Z,5.47
2023-05-07T02:59:34.949Z,4.60
2023-05-07T03:01:56.487Z,4.70
2023-05-07T03:04:19.031Z,5.43
2023-05-07T03:06:40.387Z,4.70
2023-05-07T03:09:01.722Z,5.10
2023-05-07T03:11:23.029Z,6.40
2023-05-07T03:13:44.484Z,5.60
2023-05-07T03:16:06.369Z,5.27
2023-05-07T03:18:27.766Z,5.43
2023-05-07T03:20:50.659Z,4.97
2023-05-07T03:23:11.973Z,4.47
2023-05-07T03:25:34.116Z,4.93
2023-05-07T03:27:55.362Z,6.90
2023-05-07T03:30:16.586Z,4.30
2023-05-07T03:32:38.561Z,4.37
2023-05-07T03:34:59.896Z,4.40
2023-05-07T03:37:22.785Z,4.23
2023-05-07T03:39:44.354Z,4.87
2023-05-07T03:42:05.801Z,4.77
2023-05-07T03:44:27.238Z,4.97
2023-05-07T03:46:48.688Z,5.10
2023-05-07T03:49:09.903Z,4.80
2023-05-07T03:51:31.306Z,4.43
2023-05-07T03:53:54.705Z,5.00
2023-05-07T03:56:17.868Z,5.00
2023-05-07T03:58:40.942Z,5.27
2023-05-07T04:01:02.614Z,5.20
2023-05-07T04:03:24.222Z,4.97
2023-05-07T04:05:46.059Z,4.83
2023-05-07T04:08:07.577Z,5.40
2023-05-07T04:10:31.354Z,5.27
2023-05-07T04:12:52.631Z,5.57
2023-05-07T04:15:13.944Z,5.30
2023-05-07T04:17:35.379Z,4.90
2023-05-07T04:19:56.737Z,4.53
2023-05-07T04:22:17.904Z,5.10
2023-05-07T04:24:39.249Z,5.23
2023-05-07T04:27:02.674Z,5.27
2023-05-07T04:29:23.844Z,6.00
2023-05-07T04:31:45.928Z,5.33
2023-05-07T04:34:07.139Z,5.30
2023-05-07T04:36:28.934Z,5.27
2023-05-07T04:38:50.568Z,5.47
2023-05-07T04:41:12.185Z,5.27
2023-05-07T04:43:34.785Z,5.43
2023-05-07T04:45:55.958Z,5.33
2023-05-07T04:48:17.182Z,5.00
2023-05-07T04:50:38.480Z,5.87
2023-05-07T04:52:59.758Z,5.70
2023-05-07T04:55:21.196Z,5.87
2023-05-07T04:57:42.700Z,6.27
2023-05-07T05:00:05.430Z,5.77
2023-05-07T05:02:26.447Z,4.87
2023-05-07T05:04:47.773Z,4.90
2023-05-07T05:07:09.328Z,4.70
2023-05-07T05:09:30.635Z,4.50
2023-05-07T05:11:52.642Z,4.80
2023-05-07T05:14:14.279Z,4.33
2023-05-07T05:16:37.241Z,4.70
2023-05-07T05:18:59.111Z,4.90
2023-05-07T05:21:21.519Z,4.70
2023-05-07T05:23:42.973Z,5.67
2023-05-07T05:26:04.304Z,5.13
2023-05-07T05:28:25.725Z,5.40
2023-05-07T05:30:46.981Z,5.67
2023-05-07T05:33:09.735Z,7.40
2023-05-07T05:35:31.548Z,6.37
2023-05-07T05:37:52.594Z,6.43
2023-05-07T05:40:14.271Z,5.83
2023-05-07T05:42:35.405Z,7.00
2023-05-07T05:44:56.860Z,5.50
2023-05-07T05:47:18.480Z,5.47
2023-05-07T05:49:41.364Z,4.90
2023-05-07T05:52:02.422Z,5.53
2023-05-07T05:54:23.822Z,5.30
2023-05-07T05:56:45.197Z,4.83
2023-05-07T05:59:06.592Z,6.53
2023-05-07T06:01:27.840Z,4.63
2023-05-07T06:03:49.198Z,5.40
2023-05-07T06:06:11.693Z,5.10
2023-05-07T06:08:32.755Z,5.90
2023-05-07T06:10:54.265Z,4.30
2023-05-07T06:13:15.858Z,5.70
2023-05-07T06:15:36.835Z,4.40
2023-05-07T06:17:58.537Z,5.20
2023-05-07T06:20:20.163Z,4.80
2023-05-07T06:22:42.796Z,4.40
2023-05-07T06:25:04.063Z,4.87
2023-05-07T06:27:25.488Z,4.53
2023-05-07T06:29:46.704Z,4.50
2023-05-07T06:32:08.903Z,4.73
2023-05-07T06:34:30.215Z,4.43
2023-05-07T06:36:51.528Z,5.87
2023-05-07T06:39:14.347Z,4.73
2023-05-07T06:41:36.524Z,4.30
2023-05-07T06:43:57.518Z,4.50
2023-05-07T06:46:18.629Z,5.23
2023-05-07T06:48:40.001Z,4.93
2023-05-07T06:51:01.272Z,4.83
2023-05-07T06:53:22.492Z,5.50
2023-05-07T06:55:45.302Z,4.43
2023-05-07T06:58:07.021Z,4.80
2023-05-07T07:00:28.386Z,4.87
2023-05-07T07:02:49.384Z,4.73
2023-05-07T07:05:11.415Z,5.63
2023-05-07T07:07:32.727Z,4.67
2023-05-07T07:09:54.149Z,5.20
2023-05-07T07:12:16.939Z,4.43
2023-05-07T07:14:37.921Z,4.70
2023-05-07T07:16:59.203Z,3.80
2023-05-07T07:19:21.314Z,4.40
2023-05-07T07:21:42.362Z,4.33
2023-05-07T07:24:03.866Z,3.90
2023-05-07T07:26:25.242Z,4.50
2023-05-07T07:28:48.214Z,3.90
2023-05-07T07:31:09.454Z,4.00
2023-05-07T07:33:30.805Z,4.67
2023-05-07T07:35:52.112Z,3.60
2023-05-07T07:38:13.718Z,4.03
2023-05-07T07:40:36.482Z,4.43
2023-05-07T07:42:58.767Z,5.33
2023-05-07T07:45:21.614Z,3.80
2023-05-07T07:47:43.005Z,4.37
2023-05-07T07:50:04.353Z,4.13
2023-05-07T07:52:25.719Z,4.57
2023-05-07T07:54:46.949Z,3.73
2023-05-07T07:57:08.320Z,3.23
2023-05-07T07:59:29.714Z,3.07
2023-05-07T08:01:55.500Z,3.20
2023-05-07T08:04:17.306Z,4.17
2023-05-07T08:06:38.696Z,3.70
2023-05-07T08:09:00.264Z,4.73
2023-05-07T08:11:22.306Z,6.43
2023-05-07T08:13:43.591Z,4.47
2023-05-07T08:16:05.802Z,4.00
2023-05-07T08:18:29.995Z,3.83
2023-05-07T08:20:51.203Z,4.40
2023-05-07T08:23:12.632Z,4.20
2023-05-07T08:25:34.818Z,5.47
2023-05-07T08:27:56.277Z,4.03
2023-05-07T08:30:17.695Z,4.03
2023-05-07T08:32:38.910Z,4.73
2023-05-07T08:35:01.719Z,5.77
2023-05-07T08:37:23.184Z,4.20
2023-05-07T08:39:44.874Z,4.27
2023-05-07T08:42:06.730Z,4.10
2023-05-07T08:44:28.802Z,4.60
2023-05-07T08:46:51.864Z,4.97
2023-05-07T08:49:13.020Z,4.80
2023-05-07T08:51:36.365Z,4.00
2023-05-07T08:53:57.478Z,4.77
2023-05-07T08:56:20.427Z,4.90
2023-05-07T08:58:43.257Z,4.73
2023-05-07T09:01:05.831Z,4.93
2023-05-07T09:03:27.141Z,4.73
2023-05-07T09:05:48.346Z,4.13
2023-05-07T09:08:11.346Z,4.40
2023-05-07T09:10:34.733Z,4.40
2023-05-07T09:12:55.775Z,4.23
2023-05-07T09:15:17.160Z,3.77
2023-05-07T09:17:38.580Z,4.00
2023-05-07T09:20:04.135Z,4.30
2023-05-07T09:22:25.511Z,3.57
2023-05-07T09:24:50.823Z,3.70
2023-05-07T09:27:14.479Z,3.90
2023-05-07T09:29:36.481Z,3.47
2023-05-07T09:31:57.490Z,3.60
2023-05-07T09:34:18.935Z,3.60
2023-05-07T09:36:40.645Z,3.30
2023-05-07T09:39:01.764Z,3.10
2023-05-07T09:41:24.801Z,3.10
2023-05-07T09:43:46.666Z,2.87
2023-05-07T09:46:09.087Z,3.40
2023-05-07T09:48:31.201Z,4.27
2023-05-07T09:50:57.458Z,3.00
2023-05-07T09:53:19.255Z,2.67
2023-05-07T09:55:41.013Z,3.27
2023-05-07T09:58:04.990Z,3.03
2023-05-07T10:00:27.723Z,2.97
2023-05-07T10:02:51.005Z,2.90
2023-05-07T10:05:12.348Z,5.50
2023-05-07T10:07:33.555Z,3.40
2023-05-07T10:09:55.644Z,2.90
2023-05-07T10:12:16.766Z,2.80
2023-05-07T10:14:39.922Z,3.10
2023-05-07T10:17:01.380Z,2.80
2023-05-07T10:19:22.678Z,2.70
2023-05-07T10:21:46.584Z,2.63
2023-05-07T10:24:14.887Z,3.07
2023-05-07T10:26:37.404Z,2.63
2023-05-07T10:29:01.744Z,3.03
2023-05-07T10:31:35.070Z,3.47
2023-05-07T10:33:57.983Z,2.50
2023-05-07T10:36:20.975Z,2.40
2023-05-07T10:38:42.478Z,2.43
2023-05-07T10:41:06.480Z,2.47
2023-05-07T10:43:40.325Z,2.40
2023-05-07T10:46:16.746Z,2.50
2023-05-07T10:49:01.815Z,2.33
2023-05-07T10:51:24.627Z,2.53
2023-05-07T10:53:45.728Z,2.40
2023-05-07T10:56:22.030Z,2.40
2023-05-07T10:58:43.428Z,3.67
2023-05-07T11:01:04.863Z,2.40
2023-05-07T11:03:26.555Z,2.10
2023-05-07T11:05:50.006Z,3.00
2023-05-07T11:08:11.606Z,2.43
2023-05-07T11:10:52.328Z,2.70
2023-05-07T11:13:13.359Z,2.10
2023-05-07T11:15:39.150Z,2.27
2023-05-07T11:18:01.597Z,2.30
2023-05-07T11:20:23.150Z,2.40
2023-05-07T11:22:45.722Z,3.57
2023-05-07T11:25:07.695Z,2.40
2023-05-07T11:27:29.278Z,2.43
2023-05-07T11:29:50.301Z,2.40
2023-05-07T11:32:11.814Z,2.57
2023-05-07T11:34:34.013Z,2.40
2023-05-07T11:36:55.443Z,2.57
2023-05-07T11:39:31.212Z,3.17
2023-05-07T11:41:53.621Z,2.23
2023-05-07T11:44:14.906Z,2.27
2023-05-07T11:46:36.271Z,2.33
2023-05-07T11:48:57.758Z,2.47
2023-05-07T11:51:22.785Z,2.30
2023-05-07T11:53:44.713Z,2.43
2023-05-07T11:56:11.136Z,3.07
2023-05-07T11:58:32.514Z,3.50
2023-05-07T12:00:54.447Z,2.10
2023-05-07T12:03:15.794Z,7.00
2023-05-07T12:05:38.350Z,4.10
2023-05-07T12:07:59.885Z,2.30
2023-05-07T12:10:22.202Z,2.30
2023-05-07T12:12:47.944Z,2.30
2023-05-07T12:15:10.045Z,2.20
2023-05-07T12:17:31.662Z,2.40
2023-05-07T12:19:54.404Z,7.03
2023-05-07T12:22:16.244Z,2.43
2023-05-07T12:24:45.483Z,2.47
2023-05-07T12:27:06.801Z,2.50
2023-05-07T12:29:29.909Z,7.03
2023-05-07T12:31:51.580Z,2.67
2023-05-07T12:34:12.943Z,2.83
2023-05-07T12:36:39.114Z,4.20
2023-05-07T12:39:01.586Z,2.33
2023-05-07T12:41:27.613Z,2.67
2023-05-07T12:43:49.007Z,2.57
2023-05-07T12:46:12.061Z,2.60
2023-05-07T12:48:33.277Z,2.83
2023-05-07T12:50:55.040Z,3.50
2023-05-07T12:53:16.145Z,2.33
2023-05-07T12:55:44.886Z,3.47
2023-05-07T12:58:05.976Z,3.40
2023-05-07T13:00:40.166Z,4.50
2023-05-07T13:03:02.905Z,2.93
2023-05-07T13:05:24.328Z,3.27
2023-05-07T13:07:54.380Z,3.43
2023-05-07T13:10:15.627Z,6.37
2023-05-07T13:12:37.334Z,4.97
2023-05-07T13:14:58.563Z,3.00
2023-05-07T13:17:20.744Z,3.80
2023-05-07T13:19:43.368Z,2.90
2023-05-07T13:22:04.447Z,2.63
2023-05-07T13:24:25.751Z,3.40
2023-05-07T13:26:46.932Z,3.13
2023-05-07T13:29:08.102Z,2.30
2023-05-07T13:31:29.438Z,3.97
2023-05-07T13:33:51.091Z,3.53
2023-05-07T13:36:13.504Z,3.20
2023-05-07T13:38:34.857Z,3.47
2023-05-07T13:40:56.458Z,4.23
2023-05-07T13:43:18.574Z,6.57
2023-05-07T13:45:39.686Z,4.87
2023-05-07T13:48:00.994Z,4.23
2023-05-07T13:50:22.114Z,3.53
2023-05-07T13:52:48.572Z,3.07
2023-05-07T13:55:10.046Z,3.60
2023-05-07T13:57:31.153Z,4.30
2023-05-07T13:59:52.431Z,4.00
2023-05-07T14:02:13.771Z,3.10
2023-05-07T14:04:34.920Z,3.97
2023-05-07T14:06:56.190Z,3.20
2023-05-07T14:09:18.936Z,2.67
2023-05-07T14:11:39.920Z,2.77
2023-05-07T14:14:01.348Z,2.30
2023-05-07T14:16:22.871Z,2.63
2023-05-07T14:18:44.134Z,3.63
2023-05-07T14:21:07.160Z,4.30
2023-05-07T14:23:28.848Z,3.33
2023-05-07T14:25:51.354Z,2.93
2023-05-07T14:28:12.663Z,3.00
2023-05-07T14:30:33.977Z,2.50
2023-05-07T14:32:55.793Z,3.30
2023-05-07T14:35:17.076Z,4.43
2023-05-07T14:37:38.529Z,6.20
2023-05-07T14:39:59.920Z,5.93
2023-05-07T14:42:22.486Z,6.90
2023-05-07T14:44:44.067Z,3.87
2023-05-07T14:47:05.528Z,3.40
2023-05-07T14:49:26.759Z,2.90
2023-05-07T14:51:48.553Z,3.53
2023-05-07T14:54:09.770Z,3.47
2023-05-07T14:56:31.251Z,5.00
2023-05-07T14:58:53.980Z,4.03
2023-05-07T15:01:15.612Z,5.13
2023-05-07T15:03:37.012Z,3.93
2023-05-07T15:05:58.246Z,6.37
2023-05-07T15:08:19.688Z,4.50
2023-05-07T15:10:42.526Z,8.30
2023-05-07T15:13:03.820Z,6.50
2023-05-07T15:15:26.382Z,5.13
2023-05-07T15:17:47.922Z,4.60
2023-05-07T15:20:09.671Z,5.13
2023-05-07T15:22:30.741Z,5.50
2023-05-07T15:24:52.256Z,5.50
2023-05-07T15:27:13.656Z,4.97
2023-05-07T15:29:35.151Z,5.50
2023-05-07T15:31:58.382Z,4.40
2023-05-07T15:34:19.798Z,4.30
2023-05-07T15:36:40.991Z,5.63
2023-05-07T15:39:03.729Z,4.00
2023-05-07T15:41:25.151Z,5.03
2023-05-07T15:43:47.598Z,3.93
2023-05-07T15:46:08.683Z,6.50
2023-05-07T15:48:31.616Z,4.00
2023-05-07T15:50:52.823Z,6.23
2023-05-07T15:53:14.676Z,4.50
2023-05-07T15:55:35.797Z,4.27
2023-05-07T15:57:57.602Z,5.10
2023-05-07T16:00:19.344Z,4.47
2023-05-07T16:02:40.976Z,6.43
2023-05-07T16:05:03.740Z,4.80
2023-05-07T16:07:25.019Z,7.40
2023-05-07T16:09:46.207Z,5.17
2023-05-07T16:12:07.404Z,4.50
2023-05-07T16:14:28.691Z,4.97
2023-05-07T16:16:49.955Z,5.00
2023-05-07T16:19:11.235Z,4.27
2023-05-07T16:21:35.555Z,4.10
2023-05-07T16:23:57.029Z,4.60
2023-05-07T16:26:18.271Z,4.47
2023-05-07T16:28:39.567Z,4.20
2023-05-07T16:31:01.630Z,4.57
2023-05-07T16:33:23.217Z,4.27
2023-05-07T16:35:47.560Z,3.97
2023-05-07T16:38:11.680Z,4.13
2023-05-07T16:40:32.928Z,4.30
2023-05-07T16:42:55.520Z,4.53
2023-05-07T16:45:18.703Z,4.00
2023-05-07T16:47:40.108Z,4.80
2023-05-07T16:50:01.592Z,4.10
2023-05-07T16:52:22.827Z,4.37
2023-05-07T16:54:45.647Z,4.20
2023-05-07T16:57:06.794Z,4.93
2023-05-07T16:59:31.479Z,4.97
2023-05-07T17:01:53.452Z,5.83
2023-05-07T17:04:14.733Z,5.23
2023-05-07T17:06:36.434Z,8.17
2023-05-07T17:08:57.699Z,5.53
2023-05-07T17:11:20.955Z,5.90
2023-05-07T17:13:42.082Z,5.30
2023-05-07T17:16:03.454Z,5.10
2023-05-07T17:18:24.880Z,7.00
2023-05-07T17:20:46.281Z,5.37
2023-05-07T17:23:07.908Z,5.67
2023-05-07T17:25:29.298Z,5.63
2023-05-07T17:27:52.095Z,6.23
2023-05-07T17:30:15.410Z,5.23
2023-05-07T17:32:37.217Z,5.43
2023-05-07T17:34:59.050Z,5.40
2023-05-07T17:37:22.948Z,6.20
2023-05-07T17:39:44.848Z,5.37
2023-05-07T17:42:06.261Z,5.47
2023-05-07T17:44:29.113Z,6.27
2023-05-07T17:46:50.571Z,5.47
2023-05-07T17:49:11.728Z,4.83
2023-05-07T17:51:42.461Z,4.93
2023-05-07T17:54:14.425Z,6.30
2023-05-07T17:56:35.773Z,5.13
2023-05-07T17:58:59.086Z,5.00
2023-05-07T18:01:21.944Z,5.10
2023-05-07T18:03:43.374Z,4.90
2023-05-07T18:06:04.861Z,6.60
2023-05-07T18:08:26.300Z,5.10
2023-05-07T18:10:47.908Z,4.63
2023-05-07T18:13:09.716Z,4.83
2023-05-07T18:15:31.156Z,5.37
2023-05-07T18:17:53.885Z,4.80
2023-05-07T18:20:15.041Z,5.93
2023-05-07T18:22:36.326Z,4.70
2023-05-07T18:24:57.674Z,5.60
2023-05-07T18:27:19.074Z,5.20
2023-05-07T18:29:40.621Z,5.20
2023-05-07T18:32:01.704Z,5.00
2023-05-07T18:34:24.314Z,5.57
2023-05-07T18:36:45.685Z,5.50
2023-05-07T18:39:08.575Z,4.97
2023-05-07T18:41:29.837Z,5.43
2023-05-07T18:43:51.120Z,4.53
2023-05-07T18:46:12.434Z,5.93
2023-05-07T18:48:33.699Z,7.37
2023-05-07T18:50:56.881Z,8.63
2023-05-07T18:53:18.263Z,10.13
2023-05-07T18:55:39.488Z,10.00
2023-05-07T18:58:00.833Z,9.17
2023-05-07T19:00:22.250Z,7.83
2023-05-07T19:02:43.358Z,6.20
2023-05-07T19:05:04.735Z,5.13
2023-05-07T19:07:27.375Z,4.80
2023-05-07T19:10:03.570Z,4.70
2023-05-07T19:12:26.076Z,5.40
2023-05-07T19:14:47.556Z,5.27
2023-05-07T19:17:09.342Z,5.10
2023-05-07T19:19:33.484Z,5.07
2023-05-07T19:21:54.804Z,7.97
2023-05-07T19:24:19.713Z,4.93
2023-05-07T19:26:42.253Z,5.40
2023-05-07T19:29:16.608Z,5.73
2023-05-07T19:31:39.129Z,5.00
2023-05-07T19:34:00.611Z,4.90
2023-05-07T19:36:21.845Z,5.67
2023-05-07T19:38:43.333Z,6.40
2023-05-07T19:41:06.105Z,6.57
2023-05-07T19:43:27.472Z,6.97
2023-05-07T19:45:50.034Z,6.03
2023-05-07T19:48:11.441Z,5.70
2023-05-07T19:50:32.747Z,6.00
2023-05-07T19:52:53.971Z,6.07
2023-05-07T19:55:15.414Z,5.93
2023-05-07T19:57:38.751Z,7.67
2023-05-07T19:59:59.862Z,6.43
2023-05-07T20:02:21.329Z,6.23
2023-05-07T20:04:43.098Z,6.20
2023-05-07T20:07:04.137Z,7.43
2023-05-07T20:09:25.369Z,7.47
2023-05-07T20:11:46.684Z,7.87
2023-05-07T20:14:10.083Z,9.03
2023-05-07T20:16:31.768Z,8.17
2023-05-07T20:18:53.207Z,8.17
2023-05-07T20:21:14.844Z,7.63
2023-05-07T20:23:36.267Z,7.03
2023-05-07T20:25:58.771Z,6.77
2023-05-07T20:28:20.241Z,6.93
2023-05-07T20:30:42.816Z,7.30
2023-05-07T20:33:05.321Z,7.87
2023-05-07T20:35:26.970Z,7.87
2023-05-07T20:37:48.363Z,7.63
2023-05-07T20:40:10.199Z,7.90
2023-05-07T20:42:31.528Z,8.33
2023-05-07T20:44:52.986Z,7.67
2023-05-07T20:47:15.856Z,7.97
2023-05-07T20:49:36.880Z,8.07
2023-05-07T20:51:58.385Z,8.13
2023-05-07T20:54:19.878Z,9.20
2023-05-07T20:56:40.966Z,9.33
2023-05-07T20:59:02.332Z,8.33
2023-05-07T21:01:23.919Z,9.60
2023-05-07T21:03:46.366Z,9.57
2023-05-07T21:06:07.679Z,11.00
2023-05-07T21:08:29.069Z,9.97
2023-05-07T21:10:50.961Z,10.10
2023-05-07T21:13:12.002Z,9.63
2023-05-07T21:15:33.463Z,9.63
2023-05-07T21:17:54.934Z,10.30
2023-05-07T21:20:17.753Z,12.30
2023-05-07T21:22:39.132Z,9.53
2023-05-07T21:25:00.624Z,9.87
2023-05-07T21:27:21.839Z,9.53
2023-05-07T21:29:43.244Z,11.13
2023-05-07T21:32:05.528Z,10.03
2023-05-07T21:34:26.958Z,9.93
2023-05-07T21:36:49.726Z,10.23
2023-05-07T21:39:10.947Z,12.00
2023-05-07T21:41:32.080Z,9.67
2023-05-07T21:43:53.837Z,10.03
2023-05-07T21:46:15.495Z,10.13
2023-05-07T21:48:36.622Z,8.60
2023-05-07T21:51:01.951Z,9.53
2023-05-07T21:53:24.650Z,10.03
2023-05-07T21:55:46.043Z,9.53
2023-05-07T21:58:07.509Z,8.53
2023-05-07T22:00:29.420Z,9.23
2023-05-07T22:02:51.288Z,9.53
2023-05-07T22:05:12.772Z,9.23
2023-05-07T22:07:34.124Z,9.00
2023-05-07T22:09:56.903Z,10.40
2023-05-07T22:12:18.082Z,10.13
2023-05-07T22:14:39.482Z,9.97
2023-05-07T22:17:00.748Z,9.10
2023-05-07T22:19:21.951Z,8.90
2023-05-07T22:21:43.655Z,9.50
2023-05-07T22:24:07.172Z,9.43
2023-05-07T22:26:29.915Z,8.70
2023-05-07T22:28:51.120Z,8.60
2023-05-07T22:31:12.625Z,9.23
2023-05-07T22:33:34.064Z,9.50
2023-05-07T22:35:55.192Z,8.93
2023-05-07T22:38:17.244Z,8.50
2023-05-07T22:40:38.529Z,8.10
2023-05-07T22:43:01.411Z,8.70
2023-05-07T22:45:22.562Z,8.57
2023-05-07T22:47:43.961Z,9.40
2023-05-07T22:50:06.502Z,8.60
2023-05-07T22:52:28.009Z,9.57
2023-05-07T22:54:49.165Z,7.90
2023-05-07T22:57:10.742Z,8.87
2023-05-07T22:59:33.598Z,8.90
2023-05-07T23:01:55.118Z,9.07
2023-05-07T23:04:16.408Z,9.87
2023-05-07T23:06:37.812Z,8.83
2023-05-07T23:08:59.227Z,9.27
2023-05-07T23:11:21.055Z,9.27
2023-05-07T23:13:42.134Z,9.00
2023-05-07T23:16:04.915Z,8.40
2023-05-07T23:18:27.918Z,9.63
2023-05-07T23:20:49.163Z,8.63
2023-05-07T23:23:10.510Z,8.67
2023-05-07T23:25:31.857Z,9.67
2023-05-07T23:27:53.258Z,8.90
2023-05-07T23:30:15.221Z,8.97
2023-05-07T23:32:38.034Z,9.03
2023-05-07T23:34:59.510Z,9.50
2023-05-07T23:37:20.798Z,9.63
2023-05-07T23:39:42.213Z,9.80
2023-05-07T23:42:03.933Z,9.60
2023-05-07T23:44:24.964Z,9.33
2023-05-07T23:46:46.504Z,10.37
2023-05-07T23:49:09.220Z,10.97
2023-05-07T23:51:31.185Z,10.87
2023-05-07T23:53:52.587Z,10.73
2023-05-07T23:56:13.683Z,10.97
2023-05-07T23:58:35.144Z,9.77
